createdAt,value
2018-05-26T00:01:59.691Z,26.07
2018-05-26T00:04:27.964Z,22.23
2018-05-26T00:06:56.224Z,29.20
2018-05-26T00:09:24.484Z,21.10
2018-05-26T00:11:53.501Z,27.53
2018-05-26T00:14:21.757Z,26.60
2018-05-26T00:16:50.801Z,25.17
2018-05-26T00:19:19.046Z,24.27
2018-05-26T00:21:47.316Z,34.97
2018-05-26T00:24:15.588Z,22.80
2018-05-26T00:26:44.612Z,22.00
2018-05-26T00:29:12.867Z,20.60
2018-05-26T00:31:41.136Z,27.07
2018-05-26T00:34:09.391Z,27.57
2018-05-26T00:36:38.420Z,22.97
2018-05-26T00:39:06.708Z,28.33
2018-05-26T00:41:34.966Z,33.67
2018-05-26T00:44:03.230Z,29.93
2018-05-26T00:46:32.251Z,32.50
2018-05-26T00:49:00.504Z,37.83
2018-05-26T00:51:29.529Z,35.50
2018-05-26T00:53:57.794Z,33.10
2018-05-26T00:56:26.047Z,34.97
2018-05-26T00:58:55.072Z,31.77
2018-05-26T01:01:23.355Z,29.13
2018-05-26T01:03:51.593Z,29.73
2018-05-26T01:06:20.626Z,31.47
2018-05-26T01:08:48.901Z,28.27
2018-05-26T01:11:17.358Z,32.40
2018-05-26T01:13:45.618Z,36.70
2018-05-26T01:16:13.889Z,33.10
2018-05-26T01:18:42.218Z,29.87
2018-05-26T01:21:10.509Z,31.07
2018-05-26T01:23:38.754Z,33.03
2018-05-26T01:26:07.024Z,35.47
2018-05-26T01:28:35.315Z,37.20
2018-05-26T01:31:03.608Z,33.20
2018-05-26T01:33:31.883Z,33.13
2018-05-26T01:36:00.139Z,31.90
2018-05-26T01:38:28.428Z,30.40
2018-05-26T01:40:56.683Z,36.13
2018-05-26T01:43:24.956Z,32.87
2018-05-26T01:45:53.269Z,35.10
2018-05-26T01:48:21.528Z,33.73
2018-05-26T01:50:49.808Z,28.67
2018-05-26T01:53:18.075Z,34.60
2018-05-26T01:55:46.337Z,33.87
2018-05-26T01:58:14.603Z,30.40
2018-05-26T02:00:42.872Z,31.80
2018-05-26T02:03:11.136Z,35.93
2018-05-26T02:05:39.411Z,33.43
2018-05-26T02:08:08.430Z,39.20
2018-05-26T02:10:36.681Z,30.83
2018-05-26T02:13:05.697Z,31.67
2018-05-26T02:15:33.961Z,35.40
2018-05-26T02:18:02.217Z,37.87
2018-05-26T02:20:31.273Z,30.20
2018-05-26T02:22:59.653Z,33.20
2018-05-26T02:25:27.906Z,38.73
2018-05-26T02:27:56.171Z,34.00
2018-05-26T02:30:24.436Z,39.10
2018-05-26T02:32:52.701Z,35.67
2018-05-26T02:35:21.712Z,35.80
2018-05-26T02:37:49.967Z,30.87
2018-05-26T02:40:19.010Z,33.97
2018-05-26T02:42:47.297Z,38.60
2018-05-26T02:45:15.545Z,35.27
2018-05-26T02:47:43.809Z,37.77
2018-05-26T02:50:12.115Z,33.27
2018-05-26T02:52:41.088Z,42.47
2018-05-26T02:55:09.338Z,32.40
2018-05-26T02:57:38.357Z,33.10
2018-05-26T03:00:06.679Z,33.07
2018-05-26T03:02:34.983Z,33.87
2018-05-26T03:05:09.581Z,36.33
2018-05-26T03:07:43.603Z,33.93
2018-05-26T03:10:17.613Z,33.13
2018-05-26T03:12:52.424Z,36.20
2018-05-26T03:15:20.308Z,40.77
2018-05-26T03:17:49.541Z,38.53
2018-05-26T03:20:17.939Z,35.90
2018-05-26T03:22:47.064Z,36.30
2018-05-26T03:25:15.295Z,33.97
2018-05-26T03:27:43.549Z,30.13
2018-05-26T03:30:12.577Z,36.93
2018-05-26T03:32:40.861Z,33.83
2018-05-26T03:35:09.117Z,36.10
2018-05-26T03:37:37.395Z,31.57
2018-05-26T03:40:05.685Z,30.53
2018-05-26T03:42:33.969Z,35.90
2018-05-26T03:45:02.232Z,38.43
2018-05-26T03:47:30.488Z,40.63
2018-05-26T03:49:58.793Z,40.13
2018-05-26T03:52:27.116Z,39.73
2018-05-26T03:58:19.141Z,37.40
2018-05-26T04:00:47.418Z,30.27
2018-05-26T04:03:15.669Z,35.70
2018-05-26T04:05:43.921Z,31.47
2018-05-26T04:08:12.933Z,34.53
2018-05-26T04:10:41.201Z,33.80
2018-05-26T04:13:09.482Z,31.50
2018-05-26T04:15:37.738Z,33.33
2018-05-26T04:18:06.773Z,27.97
2018-05-26T04:20:35.034Z,25.30
2018-05-26T04:23:03.301Z,26.67
2018-05-26T04:25:31.559Z,26.20
2018-05-26T04:28:00.587Z,23.80
2018-05-26T04:30:28.874Z,22.90
2018-05-26T04:32:57.137Z,26.70
2018-05-26T04:35:25.482Z,22.63
2018-05-26T04:37:53.755Z,22.87
2018-05-26T04:40:22.785Z,24.07
2018-05-26T04:42:51.049Z,23.43
2018-05-26T04:45:19.315Z,21.33
2018-05-26T04:47:47.571Z,23.70
2018-05-26T04:50:15.807Z,23.30
2018-05-26T04:52:44.080Z,23.27
2018-05-26T04:55:12.335Z,23.13
2018-05-26T04:57:40.604Z,20.63
2018-05-26T05:00:08.855Z,20.80
2018-05-26T05:02:37.869Z,19.53
2018-05-26T05:05:06.118Z,20.73
2018-05-26T05:07:35.150Z,18.23
2018-05-26T05:10:03.397Z,19.37
2018-05-26T05:12:32.424Z,21.57
2018-05-26T05:15:00.754Z,16.87
2018-05-26T05:17:28.984Z,18.33
2018-05-26T05:19:57.227Z,16.70
2018-05-26T05:22:25.502Z,16.40
2018-05-26T05:24:53.771Z,19.93
2018-05-26T05:27:22.041Z,17.13
2018-05-26T05:29:51.074Z,19.30
2018-05-26T05:32:19.323Z,14.63
2018-05-26T05:34:47.590Z,15.33
2018-05-26T05:37:15.921Z,15.90
2018-05-26T05:39:44.174Z,16.93
2018-05-26T05:42:12.451Z,13.50
2018-05-26T05:44:40.732Z,12.40
2018-05-26T05:47:09.043Z,13.33
2018-05-26T05:49:37.292Z,12.83
2018-05-26T05:52:05.553Z,13.97
2018-05-26T05:54:33.845Z,16.30
2018-05-26T05:57:02.122Z,14.37
2018-05-26T05:59:30.379Z,12.33
2018-05-26T06:01:58.686Z,14.77
2018-05-26T06:04:27.061Z,14.10
2018-05-26T06:06:56.078Z,12.43
2018-05-26T06:09:24.349Z,14.50
2018-05-26T06:11:52.651Z,13.33
2018-05-26T06:14:21.672Z,11.80
2018-05-26T06:16:49.952Z,11.50
2018-05-26T06:19:18.213Z,11.33
2018-05-26T06:21:46.497Z,15.83
2018-05-26T06:24:14.789Z,14.07
2018-05-26T06:26:43.040Z,13.93
2018-05-26T06:29:11.309Z,13.70
2018-05-26T06:31:40.378Z,14.70
2018-05-26T06:34:08.598Z,14.10
2018-05-26T06:36:36.896Z,13.10
2018-05-26T06:39:05.147Z,16.47
2018-05-26T06:41:34.218Z,15.17
2018-05-26T06:44:03.237Z,13.30
2018-05-26T06:46:31.522Z,13.50
2018-05-26T06:48:59.812Z,17.53
2018-05-26T06:51:28.080Z,15.23
2018-05-26T06:53:56.416Z,11.57
2018-05-26T06:56:25.440Z,12.53
2018-05-26T06:58:53.691Z,17.10
2018-05-26T07:01:22.718Z,12.40
2018-05-26T07:03:50.978Z,12.80
2018-05-26T07:06:19.292Z,12.80
2018-05-26T07:08:47.632Z,13.90
2018-05-26T07:11:16.061Z,11.43
2018-05-26T07:13:44.412Z,12.00
2018-05-26T07:16:12.659Z,10.80
2018-05-26T07:18:40.923Z,15.07
2018-05-26T07:21:09.203Z,12.73
2018-05-26T07:23:37.468Z,10.83
2018-05-26T07:26:06.500Z,10.77
2018-05-26T07:28:35.709Z,12.90
2018-05-26T07:31:03.960Z,14.87
2018-05-26T07:33:32.229Z,10.80
2018-05-26T07:36:00.495Z,11.07
2018-05-26T07:38:29.512Z,11.67
2018-05-26T07:40:57.765Z,12.67
2018-05-26T07:43:26.054Z,12.90
2018-05-26T07:45:54.322Z,10.97
2018-05-26T07:48:22.617Z,10.40
2018-05-26T07:50:50.928Z,8.87
2018-05-26T07:53:19.205Z,9.13
2018-05-26T07:55:47.456Z,10.37
2018-05-26T07:58:15.700Z,13.63
2018-05-26T08:00:43.947Z,11.00
2018-05-26T08:03:13.061Z,16.60
2018-05-26T08:05:41.323Z,10.27
2018-05-26T08:08:10.383Z,15.10
2018-05-26T08:10:38.640Z,10.97
2018-05-26T08:13:06.886Z,12.73
2018-05-26T08:15:35.142Z,11.33
2018-05-26T08:18:04.175Z,9.70
2018-05-26T08:20:33.187Z,7.63
2018-05-26T08:23:01.473Z,9.47
2018-05-26T08:25:30.509Z,8.23
2018-05-26T08:27:59.524Z,7.63
2018-05-26T08:30:28.622Z,10.30
2018-05-26T08:32:56.877Z,12.97
2018-05-26T08:35:25.123Z,10.50
2018-05-26T08:37:54.183Z,14.97
2018-05-26T08:40:22.452Z,10.43
2018-05-26T08:42:50.716Z,12.60
2018-05-26T08:45:18.978Z,8.80
2018-05-26T08:47:47.228Z,9.77
2018-05-26T08:50:16.237Z,8.47
2018-05-26T08:52:44.479Z,9.03
2018-05-26T08:55:12.744Z,8.63
2018-05-26T08:57:41.012Z,9.90
2018-05-26T09:00:09.268Z,8.17
2018-05-26T09:02:37.518Z,7.83
2018-05-26T09:05:05.803Z,13.70
2018-05-26T09:07:34.063Z,9.97
2018-05-26T09:10:02.309Z,7.63
2018-05-26T09:12:31.323Z,9.40
2018-05-26T09:14:59.591Z,7.50
2018-05-26T09:17:28.640Z,12.60
2018-05-26T09:19:56.917Z,7.37
2018-05-26T09:22:25.170Z,10.40
2018-05-26T09:24:53.457Z,7.87
2018-05-26T09:27:21.740Z,11.93
2018-05-26T09:29:49.981Z,7.00
2018-05-26T09:32:18.267Z,8.87
2018-05-26T09:34:46.515Z,6.83
2018-05-26T09:37:14.757Z,7.60
2018-05-26T09:39:43.037Z,9.30
2018-05-26T09:42:11.314Z,9.47
2018-05-26T09:44:39.581Z,7.23
2018-05-26T09:47:07.835Z,8.30
2018-05-26T09:49:36.088Z,11.13
2018-05-26T09:52:04.362Z,6.10
2018-05-26T09:54:32.634Z,5.20
2018-05-26T09:57:00.934Z,8.80
2018-05-26T09:59:29.182Z,7.23
2018-05-26T10:01:58.200Z,8.03
2018-05-26T10:04:26.473Z,6.03
2018-05-26T10:06:54.729Z,6.33
2018-05-26T10:09:22.978Z,6.40
2018-05-26T10:11:51.243Z,10.47
2018-05-26T10:14:20.316Z,6.90
2018-05-26T10:16:48.564Z,7.33
2018-05-26T10:19:16.821Z,7.70
2018-05-26T10:21:45.114Z,5.40
2018-05-26T10:24:13.354Z,6.30
2018-05-26T10:26:41.616Z,6.13
2018-05-26T10:29:10.628Z,5.70
2018-05-26T10:31:38.934Z,5.80
2018-05-26T10:34:07.182Z,5.40
2018-05-26T10:36:35.514Z,8.03
2018-05-26T10:39:03.763Z,9.87
2018-05-26T10:41:32.041Z,6.47
2018-05-26T10:44:00.280Z,5.90
2018-05-26T10:46:28.605Z,7.63
2018-05-26T10:48:56.891Z,5.60
2018-05-26T10:51:25.304Z,5.50
2018-05-26T10:53:54.336Z,14.60
2018-05-26T10:56:22.616Z,6.37
2018-05-26T10:58:50.884Z,6.50
2018-05-26T11:01:19.168Z,11.33
2018-05-26T11:03:47.565Z,8.20
2018-05-26T11:06:16.919Z,4.00
2018-05-26T11:08:45.163Z,6.53
2018-05-26T11:11:14.450Z,4.03
2018-05-26T11:13:42.684Z,7.70
2018-05-26T11:16:11.046Z,4.97
2018-05-26T11:18:39.234Z,5.37
2018-05-26T11:21:07.487Z,5.03
2018-05-26T11:23:36.206Z,4.93
2018-05-26T11:26:04.873Z,5.43
2018-05-26T11:28:33.013Z,3.43
2018-05-26T11:31:02.122Z,2.73
2018-05-26T11:33:31.108Z,5.43
2018-05-26T11:35:59.371Z,4.53
2018-05-26T11:38:28.379Z,6.83
2018-05-26T11:40:56.655Z,7.17
2018-05-26T11:43:25.892Z,5.20
2018-05-26T11:45:54.136Z,4.00
2018-05-26T11:48:22.928Z,4.53
2018-05-26T11:50:51.177Z,3.87
2018-05-26T11:53:20.257Z,5.27
2018-05-26T11:55:49.442Z,4.63
2018-05-26T11:58:17.699Z,7.27
2018-05-26T12:00:45.935Z,7.73
2018-05-26T12:03:14.186Z,3.73
2018-05-26T12:05:42.434Z,7.90
2018-05-26T12:08:11.459Z,4.47
2018-05-26T12:10:40.492Z,4.00
2018-05-26T12:13:08.749Z,22.60
2018-05-26T12:15:36.999Z,4.60
2018-05-26T12:18:06.103Z,4.10
2018-05-26T12:20:35.121Z,4.37
2018-05-26T12:23:03.379Z,4.47
2018-05-26T12:25:31.632Z,5.50
2018-05-26T12:28:00.673Z,5.33
2018-05-26T12:30:28.969Z,4.20
2018-05-26T12:32:57.222Z,5.80
2018-05-26T12:35:25.462Z,5.87
2018-05-26T12:37:54.493Z,4.33
2018-05-26T12:40:22.820Z,9.87
2018-05-26T12:42:51.898Z,4.20
2018-05-26T12:45:20.233Z,5.70
2018-05-26T12:47:48.468Z,5.23
2018-05-26T12:50:17.476Z,4.60
2018-05-26T12:52:46.689Z,7.33
2018-05-26T12:55:14.951Z,11.63
2018-05-26T12:57:43.983Z,4.47
2018-05-26T13:00:12.246Z,5.63
2018-05-26T13:02:40.506Z,3.80
2018-05-26T13:05:09.159Z,5.00
2018-05-26T13:07:38.175Z,8.40
2018-05-26T13:10:07.199Z,5.17
2018-05-26T13:12:35.489Z,5.93
2018-05-26T13:15:03.764Z,5.20
2018-05-26T13:17:32.011Z,4.30
2018-05-26T13:20:00.275Z,4.30
2018-05-26T13:22:28.516Z,5.57
2018-05-26T13:24:56.793Z,6.03
2018-05-26T13:27:25.042Z,3.80
2018-05-26T13:29:53.319Z,6.43
2018-05-26T13:32:21.567Z,4.70
2018-05-26T13:34:49.883Z,5.17
2018-05-26T13:37:18.123Z,4.80
2018-05-26T13:39:46.370Z,4.03
2018-05-26T13:42:15.403Z,6.50
2018-05-26T13:44:43.663Z,4.97
2018-05-26T13:47:11.944Z,5.37
2018-05-26T13:49:40.313Z,4.60
2018-05-26T13:52:08.583Z,3.80
2018-05-26T13:54:37.696Z,3.10
2018-05-26T13:57:05.851Z,8.80
2018-05-26T13:59:34.100Z,5.20
2018-05-26T14:02:03.118Z,3.60
2018-05-26T14:04:31.402Z,9.50
2018-05-26T14:06:59.693Z,4.00
2018-05-26T14:09:27.951Z,5.60
2018-05-26T14:11:56.201Z,4.97
2018-05-26T14:14:24.541Z,6.77
2018-05-26T14:16:53.567Z,5.77
2018-05-26T14:19:21.844Z,7.07
2018-05-26T14:21:50.923Z,5.77
2018-05-26T14:24:19.215Z,4.03
2018-05-26T14:26:49.189Z,7.60
2018-05-26T14:29:17.461Z,6.03
2018-05-26T14:31:45.719Z,4.47
2018-05-26T14:34:13.965Z,3.33
2018-05-26T14:36:42.994Z,3.60
2018-05-26T14:39:11.270Z,3.23
2018-05-26T14:41:39.547Z,5.07
2018-05-26T14:44:08.020Z,4.10
2018-05-26T14:46:36.286Z,3.73
2018-05-26T14:49:06.441Z,3.20
2018-05-26T14:51:34.681Z,4.67
2018-05-26T14:54:04.006Z,4.50
2018-05-26T14:56:32.798Z,5.97
2018-05-26T14:59:01.106Z,3.67
2018-05-26T15:01:29.383Z,3.80
2018-05-26T15:03:57.656Z,2.63
2018-05-26T15:06:25.944Z,6.07
2018-05-26T15:08:54.216Z,2.77
2018-05-26T15:11:22.490Z,2.87
2018-05-26T15:13:50.819Z,4.40
2018-05-26T15:16:19.072Z,7.63
2018-05-26T15:18:47.406Z,4.30
2018-05-26T15:21:15.692Z,3.77
2018-05-26T15:23:43.962Z,4.00
2018-05-26T15:26:12.265Z,3.30
2018-05-26T15:28:40.527Z,4.70
2018-05-26T15:31:08.832Z,4.67
2018-05-26T15:33:37.116Z,3.30
2018-05-26T15:36:05.370Z,3.87
2018-05-26T15:38:34.533Z,2.80
2018-05-26T15:41:02.820Z,3.03
2018-05-26T15:43:31.070Z,3.20
2018-05-26T15:45:59.317Z,4.13
2018-05-26T15:48:27.571Z,9.67
2018-05-26T15:50:56.608Z,3.77
2018-05-26T15:53:24.941Z,3.50
2018-05-26T15:55:53.972Z,4.37
2018-05-26T15:58:22.229Z,4.10
2018-05-26T16:00:51.264Z,22.73
2018-05-26T16:03:19.536Z,16.83
2018-05-26T16:05:47.821Z,132.90
2018-05-26T16:08:16.116Z,3.40
2018-05-26T16:10:45.136Z,3.60
2018-05-26T16:13:14.493Z,5.63
2018-05-26T16:15:42.740Z,4.97
2018-05-26T16:18:10.985Z,8.10
2018-05-26T16:20:39.998Z,3.50
2018-05-26T16:23:08.277Z,3.20
2018-05-26T16:25:36.530Z,19.43
2018-05-26T16:28:05.554Z,3.80
2018-05-26T16:30:33.949Z,4.50
2018-05-26T16:33:02.249Z,3.20
2018-05-26T16:35:30.512Z,3.10
2018-05-26T16:37:58.771Z,6.30
2018-05-26T16:40:27.115Z,6.60
2018-05-26T16:42:55.642Z,4.23
2018-05-26T16:45:23.915Z,7.43
2018-05-26T16:47:52.152Z,3.73
2018-05-26T16:50:20.426Z,4.10
2018-05-26T16:52:49.434Z,5.37
2018-05-26T16:55:17.676Z,8.57
2018-05-26T16:57:45.943Z,3.93
2018-05-26T17:00:14.223Z,4.90
2018-05-26T17:02:42.463Z,4.37
2018-05-26T17:05:10.704Z,6.93
2018-05-26T17:07:38.968Z,4.53
2018-05-26T17:10:11.263Z,4.40
2018-05-26T17:12:39.524Z,5.27
2018-05-26T17:15:08.043Z,11.30
2018-05-26T17:17:36.294Z,4.83
2018-05-26T17:20:04.580Z,7.20
2018-05-26T17:22:32.833Z,22.17
2018-05-26T17:25:01.144Z,8.67
2018-05-26T17:27:29.403Z,10.23
2018-05-26T17:29:57.679Z,5.40
2018-05-26T17:32:25.949Z,14.60
2018-05-26T17:34:54.192Z,5.47
2018-05-26T17:37:23.218Z,10.23
2018-05-26T17:39:51.483Z,5.67
2018-05-26T17:42:19.727Z,6.10
2018-05-26T17:44:48.018Z,8.40
2018-05-26T17:47:17.049Z,6.23
2018-05-26T17:49:45.295Z,5.67
2018-05-26T17:52:14.321Z,5.00
2018-05-26T17:54:42.560Z,4.87
2018-05-26T17:57:10.813Z,6.50
2018-05-26T17:59:39.056Z,5.30
2018-05-26T18:02:07.306Z,5.43
2018-05-26T18:04:35.558Z,6.87
2018-05-26T18:07:04.584Z,4.93
2018-05-26T18:09:32.844Z,5.90
2018-05-26T18:12:01.106Z,6.00
2018-05-26T18:14:30.119Z,5.70
2018-05-26T18:16:58.393Z,8.03
2018-05-26T18:19:26.646Z,11.03
2018-05-26T18:21:55.658Z,6.63
2018-05-26T18:24:23.921Z,7.80
2018-05-26T18:26:52.992Z,10.77
2018-05-26T18:29:21.225Z,7.50
2018-05-26T18:31:49.482Z,7.63
2018-05-26T18:34:17.750Z,6.40
2018-05-26T18:36:46.007Z,6.00
2018-05-26T18:39:15.009Z,9.43
2018-05-26T18:41:44.066Z,7.87
2018-05-26T18:44:12.316Z,5.93
2018-05-26T18:46:40.566Z,10.60
2018-05-26T18:49:08.808Z,6.77
2018-05-26T18:51:37.058Z,10.50
2018-05-26T18:54:05.324Z,10.43
2018-05-26T18:56:33.580Z,6.73
2018-05-26T18:59:01.851Z,8.17
2018-05-26T19:01:30.160Z,6.73
2018-05-26T19:03:58.460Z,7.60
2018-05-26T19:06:26.729Z,11.30
2018-05-26T19:08:54.979Z,7.73
2018-05-26T19:11:23.242Z,6.83
2018-05-26T19:13:51.511Z,8.60
2018-05-26T19:16:19.757Z,9.23
2018-05-26T19:18:48.774Z,10.57
2018-05-26T19:21:17.021Z,8.13
2018-05-26T19:23:46.107Z,8.73
2018-05-26T19:26:15.187Z,8.67
2018-05-26T19:28:43.431Z,8.40
2018-05-26T19:31:11.679Z,11.30
2018-05-26T19:33:39.930Z,8.30
2018-05-26T19:36:08.182Z,9.47
2018-05-26T19:38:36.456Z,17.10
2018-05-26T19:41:04.718Z,10.90
2018-05-26T19:43:32.975Z,10.37
2018-05-26T19:46:01.246Z,10.00
2018-05-26T19:48:29.517Z,10.13
2018-05-26T19:50:57.903Z,9.23
2018-05-26T19:53:26.180Z,10.20
2018-05-26T19:55:54.444Z,11.30
2018-05-26T19:58:22.775Z,8.07
2018-05-26T20:00:51.018Z,11.10
2018-05-26T20:03:19.279Z,11.33
2018-05-26T20:05:47.537Z,11.13
2018-05-26T20:08:16.560Z,10.50
2018-05-26T20:10:44.826Z,11.17
2018-05-26T20:13:13.112Z,9.17
2018-05-26T20:15:41.364Z,11.90
2018-05-26T20:18:10.428Z,13.30
2018-05-26T20:20:40.215Z,11.27
2018-05-26T20:23:08.470Z,16.33
2018-05-26T20:25:36.733Z,11.40
2018-05-26T20:28:05.002Z,17.67
2018-05-26T20:30:33.279Z,15.97
2018-05-26T20:33:01.563Z,11.90
2018-05-26T20:35:29.822Z,13.20
2018-05-26T20:37:58.128Z,13.10
2018-05-26T20:40:26.382Z,16.10
2018-05-26T20:42:54.646Z,15.97
2018-05-26T20:45:22.907Z,15.53
2018-05-26T20:47:51.933Z,16.60
2018-05-26T20:50:20.183Z,19.10
2018-05-26T20:52:49.245Z,17.40
2018-05-26T20:55:17.497Z,16.10
2018-05-26T20:57:45.765Z,13.03
2018-05-26T21:00:14.032Z,11.20
2018-05-26T21:02:42.306Z,17.47
2018-05-26T21:05:10.561Z,11.60
2018-05-26T21:07:39.609Z,15.13
2018-05-26T21:10:07.885Z,11.37
2018-05-26T21:12:36.147Z,12.00
2018-05-26T21:15:04.477Z,15.50
2018-05-26T21:17:32.734Z,15.23
2018-05-26T21:20:00.995Z,10.83
2018-05-26T21:22:29.262Z,15.40
2018-05-26T21:24:57.512Z,11.33
2018-05-26T21:27:25.777Z,14.60
2018-05-26T21:29:54.050Z,14.70
2018-05-26T21:32:22.317Z,14.70
2018-05-26T21:34:51.346Z,15.07
2018-05-26T21:37:19.796Z,12.93
2018-05-26T21:39:48.827Z,20.10
2018-05-26T21:42:17.087Z,13.13
2018-05-26T21:44:45.357Z,17.13
2018-05-26T21:47:13.611Z,15.10
2018-05-26T21:49:41.890Z,11.67
2018-05-26T21:52:10.160Z,12.20
2018-05-26T21:54:39.189Z,13.30
2018-05-26T21:57:07.452Z,13.17
2018-05-26T21:59:35.700Z,12.40
2018-05-26T22:02:04.745Z,16.53
2018-05-26T22:04:33.009Z,16.17
2018-05-26T22:07:01.272Z,16.10
2018-05-26T22:09:29.526Z,11.70
2018-05-26T22:11:57.798Z,12.47
2018-05-26T22:14:26.817Z,11.80
2018-05-26T22:16:55.077Z,12.40
2018-05-26T22:19:23.370Z,14.53
2018-05-26T22:21:51.625Z,18.63
2018-05-26T22:24:20.654Z,10.40
2018-05-26T22:26:48.922Z,11.00
2018-05-26T22:29:17.217Z,10.93
2018-05-26T22:31:46.204Z,13.63
2018-05-26T22:34:14.463Z,16.80
2018-05-26T22:36:42.713Z,17.10
2018-05-26T22:39:11.731Z,13.00
2018-05-26T22:41:39.997Z,12.00
2018-05-26T22:44:08.282Z,12.93
2018-05-26T22:46:36.537Z,13.77
2018-05-26T22:49:04.802Z,13.07
2018-05-26T22:51:33.867Z,14.67
2018-05-26T22:54:02.143Z,14.00
2018-05-26T22:56:30.404Z,12.40
2018-05-26T22:58:58.666Z,13.27
2018-05-26T23:01:26.947Z,15.73
2018-05-26T23:03:55.194Z,14.47
2018-05-26T23:06:23.458Z,11.20
2018-05-26T23:08:52.594Z,15.33
2018-05-26T23:11:20.862Z,13.40
2018-05-26T23:13:49.139Z,14.07
2018-05-26T23:16:17.406Z,12.40
2018-05-26T23:18:45.668Z,14.50
2018-05-26T23:21:13.929Z,12.67
2018-05-26T23:23:43.053Z,12.57
2018-05-26T23:26:11.366Z,13.80
2018-05-26T23:28:39.647Z,15.23
2018-05-26T23:31:07.917Z,11.87
2018-05-26T23:33:36.164Z,11.43
2018-05-26T23:36:04.450Z,16.20
2018-05-26T23:38:32.705Z,16.00
2018-05-26T23:41:00.973Z,12.13
2018-05-26T23:43:29.233Z,12.20
2018-05-26T23:45:58.269Z,11.40
2018-05-26T23:48:26.530Z,11.83
2018-05-26T23:50:54.783Z,12.10
2018-05-26T23:53:23.795Z,13.80
2018-05-26T23:55:52.039Z,13.97
2018-05-26T23:58:21.078Z,13.60
